DIANT EDFM-EDFM
Flight info
| Callsign | DIANT |
|---|---|
| Flight time | 0h 22m |
| Altitude | |
| Route | |
| Aircraft | DA42 |
Departure
| Time | 2026-05-08 19:10 |
|---|---|
| Airport | Mannheim-City Airport (EDFM) |
Arrival
| Time | 2026-05-08 19:32 |
|---|---|
| Airport | Mannheim-City Airport (EDFM) |
| Time | Latitude | Longitude | Altitude | Speed | Heading |
|---|---|---|---|---|---|
| 2026-05-08 19:04 | 49.47556 | 8.52083 | 312 ft | 0 kts | 174° |
| 2026-05-08 19:05 | 49.47549 | 8.52084 | 312 ft | 9 kts | 161° |
| 2026-05-08 19:05 | 49.47496 | 8.52172 | 313 ft | 17 kts | 183° |
| 2026-05-08 19:05 | 49.47352 | 8.52157 | 313 ft | 21 kts | 184° |
| 2026-05-08 19:06 | 49.47230 | 8.52135 | 310 ft | 14 kts | 216° |
| 2026-05-08 19:06 | 49.47201 | 8.51951 | 311 ft | 26 kts | 275° |
| 2026-05-08 19:06 | 49.47212 | 8.51631 | 309 ft | 29 kts | 271° |
| 2026-05-08 19:06 | 49.47222 | 8.51333 | 310 ft | 29 kts | 274° |
| 2026-05-08 19:07 | 49.47232 | 8.51046 | 311 ft | 23 kts | 272° |
| 2026-05-08 19:07 | 49.47239 | 8.50841 | 312 ft | 24 kts | 272° |
| 2026-05-08 19:07 | 49.47249 | 8.50750 | 310 ft | 0 kts | 298° |
| 2026-05-08 19:08 | 49.47261 | 8.50717 | 311 ft | 14 kts | 299° |
| 2026-05-08 19:08 | 49.47296 | 8.50712 | 312 ft | 0 kts | 92° |
| 2026-05-08 19:09 | 49.47296 | 8.50730 | 312 ft | 16 kts | 95° |
| 2026-05-08 19:10 | 49.47279 | 8.51256 | 310 ft | 77 kts | 89° |
| 2026-05-08 19:10 | 49.47231 | 8.52167 | 572 ft | 89 kts | 105° |
| 2026-05-08 19:10 | 49.46682 | 8.52533 | 770 ft | 112 kts | 201° |
| 2026-05-08 19:10 | 49.46106 | 8.51601 | 939 ft | 128 kts | 237° |
| 2026-05-08 19:11 | 49.45971 | 8.50305 | 1199 ft | 130 kts | 290° |
| 2026-05-08 19:11 | 49.46314 | 8.48926 | 1312 ft | 144 kts | 296° |
| 2026-05-08 19:11 | 49.46692 | 8.47440 | 1439 ft | 155 kts | 292° |
| 2026-05-08 19:11 | 49.47036 | 8.45890 | 1809 ft | 140 kts | 294° |
| 2026-05-08 19:12 | 49.47213 | 8.44425 | 2052 ft | 145 kts | 282° |
| 2026-05-08 19:12 | 49.47300 | 8.42873 | 2128 ft | 142 kts | 293° |
| 2026-05-08 19:12 | 49.47946 | 8.42617 | 1562 ft | 123 kts | 68° |
| 2026-05-08 19:12 | 49.47767 | 8.43771 | 1526 ft | 99 kts | 118° |
| 2026-05-08 19:13 | 49.47602 | 8.44725 | 1613 ft | 89 kts | 99° |
| 2026-05-08 19:13 | 49.47514 | 8.45687 | 1642 ft | 93 kts | 92° |
| 2026-05-08 19:13 | 49.47444 | 8.46671 | 1575 ft | 89 kts | 89° |
| 2026-05-08 19:13 | 49.47427 | 8.47661 | 1257 ft | 89 kts | 90° |
| 2026-05-08 19:14 | 49.47398 | 8.48630 | 938 ft | 91 kts | 83° |
| 2026-05-08 19:14 | 49.47381 | 8.49569 | 710 ft | 88 kts | 102° |
| 2026-05-08 19:14 | 49.47374 | 8.50492 | 476 ft | 86 kts | 89° |
| 2026-05-08 19:14 | 49.47356 | 8.51334 | 308 ft | 64 kts | 89° |
| 2026-05-08 19:15 | 49.47339 | 8.52210 | 331 ft | 100 kts | 88° |
| 2026-05-08 19:15 | 49.47164 | 8.52802 | 740 ft | 90 kts | 176° |
| 2026-05-08 19:15 | 49.46468 | 8.52243 | 809 ft | 116 kts | 209° |
| 2026-05-08 19:15 | 49.45720 | 8.51743 | 1069 ft | 121 kts | 195° |
| 2026-05-08 19:16 | 49.44895 | 8.51347 | 1259 ft | 128 kts | 194° |
| 2026-05-08 19:16 | 49.44022 | 8.50940 | 1382 ft | 140 kts | 191° |
| 2026-05-08 19:16 | 49.43105 | 8.50532 | 1662 ft | 142 kts | 190° |
| 2026-05-08 19:16 | 49.42092 | 8.50125 | 1720 ft | 155 kts | 185° |
| 2026-05-08 19:17 | 49.41006 | 8.50002 | 1904 ft | 155 kts | 179° |
| 2026-05-08 19:17 | 49.39925 | 8.49940 | 2005 ft | 157 kts | 176° |
| 2026-05-08 19:17 | 49.38836 | 8.49931 | 2074 ft | 156 kts | 175° |
| 2026-05-08 19:17 | 49.37742 | 8.49813 | 2104 ft | 161 kts | 191° |
| 2026-05-08 19:18 | 49.36671 | 8.49278 | 2126 ft | 163 kts | 194° |
| 2026-05-08 19:18 | 49.35575 | 8.48745 | 2096 ft | 166 kts | 193° |
| 2026-05-08 19:18 | 49.34466 | 8.48239 | 2117 ft | 164 kts | 193° |
| 2026-05-08 19:18 | 49.33386 | 8.47763 | 2111 ft | 160 kts | 192° |
| 2026-05-08 19:19 | 49.32286 | 8.47557 | 1837 ft | 159 kts | 172° |
| 2026-05-08 19:19 | 49.31231 | 8.47739 | 1897 ft | 148 kts | 168° |
| 2026-05-08 19:19 | 49.30228 | 8.48031 | 1879 ft | 145 kts | 162° |
| 2026-05-08 19:19 | 49.29306 | 8.48472 | 1987 ft | 127 kts | 130° |
| 2026-05-08 19:20 | 49.29546 | 8.48986 | 2138 ft | 123 kts | 291° |
| 2026-05-08 19:20 | 49.29453 | 8.48600 | 2052 ft | 125 kts | 192° |
| 2026-05-08 19:20 | 49.28042 | 8.49093 | 2016 ft | 128 kts | 160° |
| 2026-05-08 19:20 | 49.27178 | 8.49460 | 2002 ft | 132 kts | 158° |
| 2026-05-08 19:21 | 49.26280 | 8.49927 | 1958 ft | 136 kts | 155° |
| 2026-05-08 19:21 | 49.25382 | 8.50473 | 1902 ft | 145 kts | 152° |
| 2026-05-08 19:21 | 49.24429 | 8.51102 | 1950 ft | 153 kts | 152° |
| 2026-05-08 19:21 | 49.23438 | 8.51676 | 2004 ft | 143 kts | 171° |
| 2026-05-08 19:22 | 49.22886 | 8.50835 | 1830 ft | 120 kts | 297° |
| 2026-05-08 19:22 | 49.23613 | 8.50312 | 1687 ft | 128 kts | 355° |
| 2026-05-08 19:22 | 49.24507 | 8.49814 | 1493 ft | 141 kts | 338° |
| 2026-05-08 19:22 | 49.25310 | 8.49145 | 1254 ft | 131 kts | 318° |
| 2026-05-08 19:23 | 49.25751 | 8.47840 | 1159 ft | 138 kts | 289° |
| 2026-05-08 19:23 | 49.26321 | 8.46914 | 1097 ft | 108 kts | 336° |
| 2026-05-08 19:23 | 49.26993 | 8.46573 | 870 ft | 96 kts | 347° |
| 2026-05-08 19:23 | 49.27643 | 8.46322 | 772 ft | 98 kts | 347° |
| 2026-05-08 19:24 | 49.28266 | 8.46068 | 660 ft | 86 kts | 347° |
| 2026-05-08 19:24 | 49.28834 | 8.45840 | 545 ft | 86 kts | 346° |
| 2026-05-08 19:24 | 49.29424 | 8.45600 | 391 ft | 87 kts | 347° |
| 2026-05-08 19:24 | 49.29929 | 8.45400 | 322 ft | 73 kts | 345° |
| 2026-05-08 19:25 | 49.30549 | 8.45147 | 337 ft | 108 kts | 347° |
| 2026-05-08 19:25 | 49.31177 | 8.44913 | 722 ft | 95 kts | 4° |
| 2026-05-08 19:25 | 49.31553 | 8.45632 | 918 ft | 106 kts | 99° |
| 2026-05-08 19:25 | 49.31014 | 8.46484 | 1049 ft | 121 kts | 139° |
| 2026-05-08 19:26 | 49.30311 | 8.47248 | 1225 ft | 126 kts | 140° |
| 2026-05-08 19:26 | 49.29596 | 8.48081 | 1341 ft | 131 kts | 139° |
| 2026-05-08 19:26 | 49.28879 | 8.48936 | 1516 ft | 127 kts | 135° |
| 2026-05-08 19:26 | 49.28152 | 8.49740 | 1632 ft | 133 kts | 144° |
| 2026-05-08 19:27 | 49.27315 | 8.50367 | 1781 ft | 133 kts | 146° |
| 2026-05-08 19:27 | 49.26520 | 8.51098 | 1899 ft | 135 kts | 144° |
| 2026-05-08 19:27 | 49.25722 | 8.51837 | 2063 ft | 133 kts | 141° |
| 2026-05-08 19:27 | 49.24938 | 8.52603 | 2192 ft | 134 kts | 143° |
| 2026-05-08 19:28 | 49.24139 | 8.53351 | 2293 ft | 136 kts | 146° |
| 2026-05-08 19:28 | 49.23263 | 8.53953 | 2369 ft | 141 kts | 158° |
| 2026-05-08 19:28 | 49.22288 | 8.53950 | 2508 ft | 146 kts | 199° |
| 2026-05-08 19:28 | 49.21476 | 8.52957 | 2533 ft | 155 kts | 221° |
| 2026-05-08 19:29 | 49.21065 | 8.51498 | 2517 ft | 159 kts | 282° |
| 2026-05-08 19:29 | 49.21796 | 8.50581 | 2601 ft | 140 kts | 7° |
| 2026-05-08 19:29 | 49.22777 | 8.50725 | 2517 ft | 150 kts | 355° |
| 2026-05-08 19:29 | 49.23564 | 8.49605 | 2276 ft | 154 kts | 306° |
| 2026-05-08 19:30 | 49.23988 | 8.48370 | 2105 ft | 105 kts | 307° |
| 2026-05-08 19:30 | 49.24475 | 8.47657 | 1854 ft | 90 kts | 336° |
| 2026-05-08 19:30 | 49.25010 | 8.47289 | 1605 ft | 82 kts | 347° |
| 2026-05-08 19:30 | 49.25567 | 8.47056 | 1416 ft | 84 kts | 352° |
| 2026-05-08 19:31 | 49.26129 | 8.46831 | 1280 ft | 84 kts | 352° |
| 2026-05-08 19:31 | 49.26698 | 8.46649 | 1154 ft | 84 kts | 353° |
| 2026-05-08 19:31 | 49.27302 | 8.46428 | 989 ft | 95 kts | 347° |
| 2026-05-08 19:31 | 49.27951 | 8.46178 | 832 ft | 94 kts | 349° |
| 2026-05-08 19:32 | 49.28562 | 8.45950 | 641 ft | 86 kts | 346° |
| 2026-05-08 19:32 | 49.29137 | 8.45715 | 488 ft | 87 kts | 348° |
| 2026-05-08 19:32 | 49.29710 | 8.45489 | 343 ft | 81 kts | 345° |
| 2026-05-08 19:32 | 49.30063 | 8.45379 | 324 ft | 19 kts | 86° |
| 2026-05-08 19:33 | 49.30107 | 8.45450 | 324 ft | 13 kts | 347° |
| 2026-05-08 19:33 | 49.30217 | 8.45396 | 319 ft | 20 kts | 346° |
| 2026-05-08 19:33 | 49.30327 | 8.45369 | 317 ft | 10 kts | 25° |
| 2026-05-08 19:33 | 49.30342 | 8.45404 | 317 ft | 7 kts | 284° |